createdAt,value
2023-05-22T00:00:03.252Z,19.02
2023-05-22T00:02:15.007Z,18.92
2023-05-22T00:04:27.061Z,18.83
2023-05-22T00:06:39.140Z,18.80
2023-05-22T00:08:51.239Z,18.76
2023-05-22T00:11:03.301Z,18.73
2023-05-22T00:13:15.382Z,18.74
2023-05-22T00:15:27.464Z,18.73
2023-05-22T00:17:39.614Z,18.67
2023-05-22T00:19:51.721Z,18.59
2023-05-22T00:22:03.756Z,18.54
2023-05-22T00:24:16.811Z,18.49
2023-05-22T00:26:28.897Z,18.44
2023-05-22T00:28:40.986Z,18.40
2023-05-22T00:30:53.077Z,18.40
2023-05-22T00:33:05.148Z,18.40
2023-05-22T00:35:17.209Z,18.33
2023-05-22T00:37:29.316Z,18.24
2023-05-22T00:39:41.386Z,18.17
2023-05-22T00:41:53.485Z,18.13
2023-05-22T00:44:05.521Z,18.07
2023-05-22T00:46:17.632Z,18.00
2023-05-22T00:48:29.720Z,17.94
2023-05-22T00:50:41.865Z,17.99
2023-05-22T00:52:54.415Z,18.02
2023-05-22T00:55:06.934Z,17.95
2023-05-22T00:57:18.048Z,17.87
2023-05-22T00:59:30.136Z,17.79
2023-05-22T01:01:43.115Z,17.74
2023-05-22T01:03:54.503Z,17.66
2023-05-22T01:06:06.378Z,17.59
2023-05-22T01:08:18.455Z,17.48
2023-05-22T01:10:31.378Z,17.41
2023-05-22T01:12:42.606Z,17.33
2023-05-22T01:14:54.696Z,17.32
2023-05-22T01:17:06.764Z,17.25
2023-05-22T01:19:18.936Z,17.18
2023-05-22T01:21:30.904Z,17.07
2023-05-22T01:23:42.989Z,17.03
2023-05-22T01:25:56.090Z,16.89
2023-05-22T01:28:08.154Z,16.80
2023-05-22T01:30:20.236Z,16.63
2023-05-22T01:32:32.399Z,16.58
2023-05-22T01:34:44.386Z,16.49
2023-05-22T01:36:56.539Z,16.37
2023-05-22T01:39:09.539Z,16.31
2023-05-22T01:41:21.670Z,16.22
2023-05-22T01:43:34.682Z,16.11
2023-05-22T01:45:46.804Z,15.99
2023-05-22T01:47:58.958Z,15.86
2023-05-22T01:50:10.931Z,15.78
2023-05-22T01:52:23.025Z,15.67
2023-05-22T01:54:35.097Z,15.59
2023-05-22T01:56:49.198Z,15.51
2023-05-22T01:59:00.779Z,15.42
2023-05-22T02:01:12.874Z,15.38
2023-05-22T02:03:26.043Z,15.35
2023-05-22T02:05:37.993Z,15.28
2023-05-22T02:07:51.559Z,15.21
2023-05-22T02:10:03.706Z,15.13
2023-05-22T02:12:15.754Z,15.06
2023-05-22T02:14:27.825Z,15.03
2023-05-22T02:16:39.912Z,14.94
2023-05-22T02:18:52.010Z,14.88
2023-05-22T02:21:04.105Z,14.86
2023-05-22T02:23:16.152Z,14.84
2023-05-22T02:25:28.223Z,14.86
2023-05-22T02:27:41.809Z,14.81
2023-05-22T02:29:54.892Z,14.80
2023-05-22T02:32:06.991Z,14.88
2023-05-22T02:34:19.064Z,14.88
2023-05-22T02:36:31.123Z,14.93
2023-05-22T02:38:43.209Z,14.99
2023-05-22T02:40:55.301Z,15.05
2023-05-22T02:43:07.407Z,15.05
2023-05-22T02:45:19.458Z,15.09
2023-05-22T02:47:31.586Z,15.12
2023-05-22T02:49:45.125Z,15.28
2023-05-22T02:51:57.245Z,15.46
2023-05-22T02:54:09.363Z,15.60
2023-05-22T02:56:21.397Z,15.66
2023-05-22T02:58:34.984Z,15.72
2023-05-22T03:00:47.091Z,15.76
2023-05-22T03:02:59.269Z,15.85
2023-05-22T03:05:11.269Z,15.92
2023-05-22T03:07:23.317Z,15.93
2023-05-22T03:09:35.428Z,15.97
2023-05-22T03:11:47.496Z,16.01
2023-05-22T03:13:59.589Z,16.14
2023-05-22T03:16:11.711Z,16.30
2023-05-22T03:18:25.902Z,16.34
2023-05-22T03:20:35.819Z,16.38
2023-05-22T03:22:47.898Z,16.42
2023-05-22T03:24:59.993Z,16.49
2023-05-22T03:27:12.110Z,16.53
2023-05-22T03:29:24.151Z,16.56
2023-05-22T03:31:36.242Z,16.56
2023-05-22T03:33:48.323Z,16.58
2023-05-22T03:36:00.400Z,16.62
2023-05-22T03:38:12.514Z,16.68
2023-05-22T03:40:26.043Z,16.68
2023-05-22T03:42:40.107Z,16.71
2023-05-22T03:44:53.206Z,16.74
2023-05-22T03:47:05.281Z,16.78
2023-05-22T03:49:17.390Z,16.81
2023-05-22T03:51:29.439Z,16.83
2023-05-22T03:53:41.520Z,16.86
2023-05-22T03:55:53.619Z,16.88
2023-05-22T03:58:06.674Z,16.92
2023-05-22T04:00:18.775Z,16.93
2023-05-22T04:02:32.440Z,16.95
2023-05-22T04:04:44.497Z,16.98
2023-05-22T04:06:56.524Z,17.06
2023-05-22T04:09:08.639Z,17.11
2023-05-22T04:11:22.262Z,17.15
2023-05-22T04:13:34.303Z,17.18
2023-05-22T04:15:46.403Z,17.20
2023-05-22T04:18:00.076Z,17.17
2023-05-22T04:20:12.078Z,17.17
2023-05-22T04:22:24.647Z,17.15
2023-05-22T04:24:36.200Z,17.22
2023-05-22T04:26:48.278Z,17.22
2023-05-22T04:29:00.375Z,17.29
2023-05-22T04:31:12.489Z,17.30
2023-05-22T04:33:25.543Z,17.33
2023-05-22T04:35:37.612Z,17.35
2023-05-22T04:37:49.696Z,17.41
2023-05-22T04:40:01.795Z,17.46
2023-05-22T04:42:13.863Z,17.46
2023-05-22T04:44:25.977Z,17.54
2023-05-22T04:46:39.041Z,17.54
2023-05-22T04:48:53.077Z,17.50
2023-05-22T04:51:04.681Z,17.48
2023-05-22T04:53:16.790Z,17.47
2023-05-22T04:55:30.384Z,17.48
2023-05-22T04:57:44.434Z,17.48
2023-05-22T04:59:56.519Z,17.48
2023-05-22T05:02:08.596Z,17.47
2023-05-22T05:04:20.667Z,17.47
2023-05-22T05:06:33.764Z,17.48
2023-05-22T05:08:45.815Z,17.46
2023-05-22T05:10:59.412Z,17.51
2023-05-22T05:13:12.966Z,17.54
2023-05-22T05:15:25.081Z,17.62
2023-05-22T05:17:38.222Z,17.71
2023-05-22T05:19:49.265Z,17.84
2023-05-22T05:22:01.373Z,18.02
2023-05-22T05:24:13.410Z,18.19
2023-05-22T05:26:25.554Z,18.43
2023-05-22T05:28:37.671Z,18.62
2023-05-22T05:30:49.750Z,18.87
2023-05-22T05:33:03.347Z,19.05
2023-05-22T05:35:15.402Z,19.24
2023-05-22T05:37:27.465Z,19.31
2023-05-22T05:39:39.546Z,19.51
2023-05-22T05:41:51.621Z,19.57
2023-05-22T05:44:05.212Z,19.55
2023-05-22T05:46:19.854Z,19.35
2023-05-22T05:48:35.354Z,19.32
2023-05-22T05:50:50.980Z,19.31
2023-05-22T05:53:06.526Z,19.42
2023-05-22T05:55:22.119Z,19.48
2023-05-22T05:57:34.220Z,19.61
2023-05-22T05:59:46.269Z,19.84
2023-05-22T06:01:58.380Z,20.10
2023-05-22T06:04:11.436Z,20.31
2023-05-22T06:06:23.514Z,20.34
2023-05-22T06:08:35.609Z,20.33
2023-05-22T06:10:49.194Z,20.18
2023-05-22T06:13:01.292Z,20.38
2023-05-22T06:15:14.883Z,20.30
2023-05-22T06:17:26.970Z,20.38
2023-05-22T06:19:40.544Z,20.21
2023-05-22T06:21:52.635Z,20.06
2023-05-22T06:24:04.714Z,19.94
2023-05-22T06:26:17.788Z,19.95
2023-05-22T06:28:29.852Z,20.06
2023-05-22T06:30:43.605Z,20.09
2023-05-22T06:32:59.133Z,20.25
2023-05-22T06:35:12.666Z,20.41
2023-05-22T06:37:28.276Z,20.38
2023-05-22T06:39:43.861Z,20.68
2023-05-22T06:41:59.446Z,20.79
2023-05-22T06:44:15.041Z,20.95
2023-05-22T06:46:29.583Z,20.89
2023-05-22T06:48:43.096Z,21.08
2023-05-22T06:50:56.306Z,21.29
2023-05-22T06:53:09.887Z,21.56
2023-05-22T06:55:23.461Z,21.83
2023-05-22T06:57:35.581Z,21.81
2023-05-22T06:59:50.013Z,21.63
2023-05-22T07:02:01.220Z,21.54
2023-05-22T07:04:13.322Z,21.59
2023-05-22T07:06:25.358Z,21.76
2023-05-22T07:08:37.472Z,21.85
2023-05-22T07:10:51.017Z,21.11
2023-05-22T07:13:04.088Z,21.36
2023-05-22T07:15:17.643Z,21.81
2023-05-22T07:17:30.745Z,22.02
2023-05-22T07:19:42.838Z,22.02
2023-05-22T07:21:54.940Z,22.37
2023-05-22T07:24:08.534Z,22.82
2023-05-22T07:26:20.627Z,23.49
2023-05-22T07:28:32.688Z,23.64
2023-05-22T07:30:44.785Z,23.86
2023-05-22T07:32:56.863Z,23.95
2023-05-22T07:35:08.904Z,24.07
2023-05-22T07:37:22.510Z,24.10
2023-05-22T07:39:34.584Z,24.14
2023-05-22T07:41:47.657Z,24.24
2023-05-22T07:44:01.221Z,24.41
2023-05-22T07:46:13.363Z,24.13
2023-05-22T07:48:25.420Z,24.17
2023-05-22T07:50:37.461Z,24.17
2023-05-22T07:52:49.558Z,24.45
2023-05-22T07:55:02.628Z,24.75
2023-05-22T07:57:14.714Z,24.53
2023-05-22T07:59:26.788Z,24.76
2023-05-22T08:01:38.897Z,24.49
2023-05-22T08:03:51.136Z,24.59
2023-05-22T08:06:03.020Z,24.64
2023-05-22T08:08:16.615Z,24.35
2023-05-22T08:10:37.186Z,24.10
2023-05-22T08:12:41.762Z,23.80
2023-05-22T08:14:53.866Z,23.80
2023-05-22T08:17:07.501Z,23.90
2023-05-22T08:19:19.594Z,24.26
2023-05-22T08:21:31.600Z,24.88
2023-05-22T08:23:43.654Z,25.42
2023-05-22T08:25:55.729Z,26.11
2023-05-22T08:28:07.814Z,26.11
2023-05-22T08:30:19.877Z,26.57
2023-05-22T08:32:32.081Z,26.65
2023-05-22T08:34:44.043Z,26.65
2023-05-22T08:36:56.138Z,26.05
2023-05-22T08:39:08.205Z,26.31
2023-05-22T08:41:20.279Z,26.68
2023-05-22T08:43:32.360Z,26.15
2023-05-22T08:45:44.531Z,26.36
2023-05-22T08:47:56.601Z,26.92
2023-05-22T08:50:08.616Z,27.31
2023-05-22T08:52:20.768Z,27.29
2023-05-22T08:54:32.805Z,27.35
2023-05-22T08:56:53.282Z,27.71
2023-05-22T08:57:45.856Z,27.64
2023-05-22T08:59:56.921Z,27.24
2023-05-22T09:02:10.586Z,26.73
2023-05-22T09:04:23.644Z,26.24
2023-05-22T09:06:35.699Z,26.24
2023-05-22T09:08:48.893Z,26.20
2023-05-22T09:10:59.857Z,25.97
2023-05-22T09:13:11.956Z,25.99
2023-05-22T09:15:24.025Z,25.93
2023-05-22T09:17:38.859Z,26.11
2023-05-22T09:19:49.972Z,26.32
2023-05-22T09:22:02.046Z,26.32
2023-05-22T09:24:14.136Z,26.44
2023-05-22T09:26:26.214Z,26.59
2023-05-22T09:28:38.276Z,26.49
2023-05-22T09:30:52.850Z,26.44
2023-05-22T09:33:03.991Z,26.64
2023-05-22T09:35:16.172Z,26.72
2023-05-22T09:37:28.157Z,26.35
2023-05-22T09:39:40.210Z,25.94
2023-05-22T09:41:53.296Z,26.21
2023-05-22T09:44:05.355Z,26.47
2023-05-22T09:46:17.804Z,26.35
2023-05-22T09:48:30.839Z,26.57
2023-05-22T09:50:42.904Z,26.94
2023-05-22T09:52:56.029Z,26.65
2023-05-22T09:55:08.112Z,26.73
2023-05-22T10:07:23.641Z,26.87
2023-05-22T10:13:17.970Z,26.57
2023-05-22T10:15:29.022Z,26.67
2023-05-22T10:17:41.129Z,26.87
2023-05-22T10:19:53.167Z,27.53
2023-05-22T10:22:05.229Z,27.36
2023-05-22T10:24:17.346Z,27.67
2023-05-22T10:26:29.393Z,27.48
2023-05-22T10:28:41.461Z,27.23
2023-05-22T10:30:53.556Z,27.33
2023-05-22T10:33:06.607Z,27.86
2023-05-22T10:35:17.731Z,28.10
2023-05-22T10:37:30.772Z,28.25
2023-05-22T10:39:42.835Z,28.41
2023-05-22T10:41:55.886Z,28.35
2023-05-22T10:44:07.018Z,28.21
2023-05-22T10:46:20.711Z,28.19
2023-05-22T10:48:32.667Z,27.82
2023-05-22T10:50:45.724Z,28.06
2023-05-22T10:52:57.837Z,27.98
2023-05-22T10:55:09.913Z,27.98
2023-05-22T10:57:22.001Z,27.61
2023-05-22T10:59:34.064Z,27.51
2023-05-22T11:01:46.188Z,27.57
2023-05-22T11:03:58.207Z,27.48
2023-05-22T11:06:10.282Z,27.69
2023-05-22T11:08:22.407Z,27.89
2023-05-22T11:10:34.432Z,27.73
2023-05-22T11:12:46.507Z,28.03
2023-05-22T11:14:58.591Z,28.16
2023-05-22T11:17:11.833Z,28.06
2023-05-22T11:19:24.325Z,28.06
2023-05-22T11:21:35.850Z,28.48
2023-05-22T11:23:47.910Z,29.25
2023-05-22T11:26:00.991Z,29.31
2023-05-22T11:28:13.064Z,29.34
2023-05-22T11:30:25.144Z,29.99
2023-05-22T11:32:37.237Z,30.34
2023-05-22T11:34:50.307Z,29.89
2023-05-22T11:37:02.372Z,29.66
2023-05-22T11:39:14.439Z,29.74
2023-05-22T11:41:27.056Z,30.24
2023-05-22T11:43:38.589Z,30.27
2023-05-22T11:45:50.689Z,30.27
2023-05-22T11:48:02.834Z,30.74
2023-05-22T11:50:22.652Z,30.49
2023-05-22T11:52:28.954Z,30.29
2023-05-22T11:54:40.983Z,30.23
2023-05-22T11:56:53.057Z,30.31
2023-05-22T11:59:05.156Z,29.90
2023-05-22T12:01:17.215Z,30.23
2023-05-22T12:03:29.406Z,29.99
2023-05-22T12:05:41.388Z,29.53
2023-05-22T12:07:53.467Z,28.91
2023-05-22T12:10:05.568Z,28.96
2023-05-22T12:12:17.642Z,28.73
2023-05-22T12:14:29.756Z,28.44
2023-05-22T12:16:42.866Z,28.47
2023-05-22T12:18:54.890Z,28.66
2023-05-22T12:21:06.944Z,28.66
2023-05-22T12:23:19.005Z,28.38
2023-05-22T12:25:31.109Z,28.51
2023-05-22T12:27:43.160Z,28.33
2023-05-22T12:29:55.254Z,28.56
2023-05-22T12:32:07.359Z,28.69
2023-05-22T12:34:19.451Z,28.78
2023-05-22T12:36:31.548Z,28.62
2023-05-22T12:38:43.595Z,28.59
2023-05-22T12:40:55.677Z,28.72
2023-05-22T12:43:08.078Z,28.73
2023-05-22T12:45:19.913Z,28.75
2023-05-22T12:47:32.042Z,28.65
2023-05-22T12:49:44.004Z,28.60
2023-05-22T12:51:56.081Z,28.48
2023-05-22T12:54:08.157Z,28.33
2023-05-22T12:56:20.233Z,28.21
2023-05-22T12:58:32.331Z,28.33
2023-05-22T13:00:44.731Z,28.25
2023-05-22T13:02:56.915Z,28.07
2023-05-22T13:05:08.951Z,27.79
2023-05-22T13:07:20.983Z,27.85
2023-05-22T13:09:33.087Z,27.80
2023-05-22T13:11:45.139Z,27.92
2023-05-22T13:13:57.215Z,27.86
2023-05-22T13:16:09.349Z,27.70
2023-05-22T13:18:21.370Z,27.88
2023-05-22T13:20:33.484Z,27.85
2023-05-22T13:22:45.536Z,27.67
2023-05-22T13:24:57.592Z,27.80
2023-05-22T13:27:10.228Z,28.06
2023-05-22T13:29:21.887Z,28.07
2023-05-22T13:31:33.877Z,28.31
2023-05-22T13:33:45.937Z,28.26
2023-05-22T13:35:57.998Z,28.04
2023-05-22T13:38:10.078Z,28.09
2023-05-22T13:40:23.147Z,28.06
2023-05-22T13:42:35.263Z,27.91
2023-05-22T13:44:47.327Z,27.61
2023-05-22T13:46:59.434Z,27.67
2023-05-22T13:49:11.478Z,27.77
2023-05-22T13:51:23.555Z,27.79
2023-05-22T13:53:35.671Z,27.88
2023-05-22T13:55:48.718Z,28.11
2023-05-22T13:58:00.796Z,28.04
2023-05-22T14:00:12.889Z,28.11
2023-05-22T14:02:25.008Z,28.03
2023-05-22T14:04:37.072Z,28.17
2023-05-22T14:06:49.263Z,28.43
2023-05-22T14:10:18.797Z,28.35
2023-05-22T14:12:30.822Z,28.47
2023-05-22T14:14:42.897Z,28.36
2023-05-22T14:16:55.531Z,28.21
2023-05-22T14:19:07.078Z,28.14
2023-05-22T14:21:19.159Z,28.32
2023-05-22T14:23:32.218Z,28.16
2023-05-22T14:25:44.303Z,28.11
2023-05-22T14:27:56.374Z,28.11
2023-05-22T14:30:09.435Z,28.11
2023-05-22T14:32:21.555Z,27.94
2023-05-22T14:34:33.590Z,27.86
2023-05-22T14:36:45.665Z,27.79
2023-05-22T14:38:57.783Z,27.98
2023-05-22T14:41:10.837Z,27.95
2023-05-22T14:43:22.950Z,28.10
2023-05-22T14:45:35.025Z,28.16
2023-05-22T14:47:47.130Z,27.89
2023-05-22T14:50:14.884Z,27.92
2023-05-22T14:52:12.230Z,27.92
2023-05-22T14:54:24.327Z,27.85
2023-05-22T14:56:36.384Z,27.73
2023-05-22T14:58:48.556Z,27.48
2023-05-22T15:01:00.535Z,27.42
2023-05-22T15:03:12.741Z,27.58
2023-05-22T15:05:25.800Z,27.69
2023-05-22T15:09:50.480Z,27.86
2023-05-22T15:12:02.565Z,27.88
2023-05-22T15:14:14.634Z,27.85
2023-05-22T15:16:26.782Z,27.89
2023-05-22T15:18:39.370Z,27.91
2023-05-22T15:20:50.878Z,27.92
2023-05-22T15:23:03.909Z,27.99
2023-05-22T15:25:15.480Z,28.19
2023-05-22T15:27:27.133Z,28.03
2023-05-22T15:29:39.185Z,27.70
2023-05-22T15:31:51.318Z,27.59
2023-05-22T15:34:03.359Z,27.54
2023-05-22T15:36:16.409Z,27.84
2023-05-22T15:38:28.825Z,28.28
2023-05-22T15:40:40.889Z,28.53
2023-05-22T15:42:52.951Z,28.62
2023-05-22T15:45:05.045Z,29.53
2023-05-22T15:47:17.118Z,29.92
2023-05-22T15:49:31.226Z,30.89
2023-05-22T15:51:41.291Z,31.95
2023-05-22T15:52:41.410Z,32.32
2023-05-22T15:54:54.957Z,32.73
2023-05-22T15:57:05.446Z,33.19
2023-05-22T15:59:17.527Z,32.57
2023-05-22T16:01:29.658Z,32.11
2023-05-22T16:03:42.167Z,31.95
2023-05-22T16:05:54.070Z,31.15
2023-05-22T16:08:06.138Z,30.57
2023-05-22T16:10:18.205Z,29.70
2023-05-22T16:12:30.304Z,28.96
2023-05-22T16:14:42.381Z,28.51
2023-05-22T16:16:54.491Z,28.31
2023-05-22T16:19:06.626Z,27.91
2023-05-22T16:21:18.656Z,27.91
2023-05-22T16:23:30.738Z,27.99
2023-05-22T16:25:43.707Z,28.41
2023-05-22T16:27:54.964Z,28.96
2023-05-22T16:30:07.025Z,28.70
2023-05-22T16:32:19.091Z,28.68
2023-05-22T16:34:31.171Z,29.07
2023-05-22T16:36:43.302Z,28.72
2023-05-22T16:38:55.368Z,28.36
2023-05-22T16:41:07.444Z,28.36
2023-05-22T16:43:19.509Z,28.31
2023-05-22T16:45:31.587Z,28.19
2023-05-22T16:47:44.220Z,28.68
2023-05-22T16:49:55.766Z,29.28
2023-05-22T16:52:07.836Z,29.96
2023-05-22T16:54:19.908Z,30.09
2023-05-22T16:56:31.982Z,30.47
2023-05-22T16:58:44.484Z,30.71
2023-05-22T17:00:56.336Z,29.74
2023-05-22T17:03:09.748Z,28.84
2023-05-22T17:05:19.477Z,27.73
2023-05-22T17:07:31.528Z,27.04
2023-05-22T17:09:44.594Z,26.46
2023-05-22T17:11:57.671Z,26.08
2023-05-22T17:14:09.747Z,25.72
2023-05-22T17:16:21.944Z,25.46
2023-05-22T17:18:33.914Z,25.30
2023-05-22T17:20:45.993Z,25.19
2023-05-22T17:22:58.109Z,25.00
2023-05-22T17:25:10.130Z,24.90
2023-05-22T17:27:34.766Z,24.88
2023-05-22T17:29:34.284Z,24.77
2023-05-22T17:31:46.686Z,24.64
2023-05-22T17:33:58.476Z,24.59
2023-05-22T17:36:10.533Z,24.54
2023-05-22T17:38:23.606Z,24.44
2023-05-22T17:40:44.932Z,24.34
2023-05-22T17:42:47.800Z,24.31
2023-05-22T17:44:59.935Z,24.16
2023-05-22T17:47:11.965Z,24.04
2023-05-22T17:49:24.038Z,23.97
2023-05-22T17:51:36.141Z,23.94
2023-05-22T17:53:49.722Z,23.87
2023-05-22T17:56:01.808Z,23.79
2023-05-22T17:58:14.855Z,23.68
2023-05-22T18:00:30.457Z,23.64
2023-05-22T18:02:44.076Z,23.55
2023-05-22T18:04:59.637Z,23.45
2023-05-22T18:07:15.306Z,23.42
2023-05-22T18:09:28.287Z,23.32
2023-05-22T18:11:43.092Z,23.15
2023-05-22T18:13:56.292Z,23.12
2023-05-22T18:14:55.407Z,23.09
2023-05-22T18:17:09.395Z,23.08
2023-05-22T18:18:10.702Z,23.04
2023-05-22T18:20:22.443Z,22.96
2023-05-22T18:22:37.202Z,22.84
2023-05-22T18:24:55.304Z,22.72
2023-05-22T18:30:47.435Z,22.50
2023-05-22T18:32:37.850Z,22.39
2023-05-22T18:34:34.693Z,22.27
2023-05-22T18:37:01.416Z,22.14
2023-05-22T18:39:10.662Z,21.99
2023-05-22T18:43:00.965Z,21.78
2023-05-22T18:45:08.018Z,21.63
2023-05-22T18:47:25.597Z,21.50
2023-05-22T18:49:38.156Z,21.35
2023-05-22T18:51:56.274Z,21.21
2023-05-22T18:54:14.806Z,21.14
2023-05-22T18:56:24.932Z,21.01
2023-05-22T18:58:41.251Z,20.89
2023-05-22T19:00:58.598Z,20.66
2023-05-22T19:03:23.280Z,20.51
2023-05-22T19:07:02.378Z,20.21
2023-05-22T19:11:52.676Z,19.86
2023-05-22T19:14:12.814Z,19.69
2023-05-22T19:16:25.765Z,19.57
2023-05-22T19:18:59.387Z,19.40
2023-05-22T19:20:55.508Z,19.28
2023-05-22T19:23:13.617Z,19.13
2023-05-22T19:25:23.730Z,19.02
2023-05-22T19:27:39.540Z,18.91
2023-05-22T19:29:52.826Z,18.83
2023-05-22T19:32:09.451Z,18.72
2023-05-22T19:34:23.955Z,18.61
2023-05-22T19:36:47.475Z,18.50
2023-05-22T19:39:08.186Z,18.39
2023-05-22T19:41:21.350Z,18.31
2023-05-22T19:43:28.810Z,18.18
2023-05-22T19:45:41.937Z,18.06
2023-05-22T19:48:17.645Z,17.99
2023-05-22T19:50:16.130Z,17.85
2023-05-22T19:52:55.733Z,17.78
2023-05-22T19:54:55.042Z,17.70
2023-05-22T19:55:46.673Z,17.67
2023-05-22T19:58:02.313Z,17.62
2023-05-22T20:00:14.455Z,17.54
2023-05-22T20:04:09.788Z,17.44
2023-05-22T20:06:25.430Z,17.36
2023-05-22T20:10:00.112Z,17.25
2023-05-22T20:12:12.140Z,17.18
2023-05-22T20:14:24.260Z,17.07
2023-05-22T20:16:38.884Z,17.03
2023-05-22T20:18:50.943Z,16.98
2023-05-22T20:21:04.507Z,16.92
2023-05-22T20:23:20.072Z,16.83
2023-05-22T20:25:32.148Z,16.80
2023-05-22T20:27:45.801Z,16.75
2023-05-22T20:29:59.990Z,16.70
2023-05-22T20:32:11.532Z,16.62
2023-05-22T20:34:29.530Z,16.56
2023-05-22T20:36:41.640Z,16.52
2023-05-22T20:38:53.739Z,16.48
2023-05-22T20:41:05.771Z,16.44
2023-05-22T20:43:18.774Z,16.38
2023-05-22T20:45:30.003Z,16.33
2023-05-22T20:47:43.567Z,16.31
2023-05-22T20:49:55.433Z,16.30
2023-05-22T20:52:07.502Z,16.25
2023-05-22T20:54:20.629Z,16.23
2023-05-22T20:56:32.665Z,16.23
2023-05-22T20:58:44.738Z,16.22
2023-05-22T21:00:56.859Z,16.22
2023-05-22T21:03:08.920Z,16.18
2023-05-22T21:05:20.994Z,16.20
2023-05-22T21:07:33.058Z,16.22
2023-05-22T21:09:45.177Z,16.20
2023-05-22T21:11:57.246Z,16.26
2023-05-22T21:14:09.325Z,16.25
2023-05-22T21:16:22.445Z,16.22
2023-05-22T21:18:34.470Z,16.20
2023-05-22T21:20:46.582Z,16.18
2023-05-22T21:23:00.148Z,16.16
2023-05-22T21:25:10.737Z,16.16
2023-05-22T21:27:22.864Z,16.15
2023-05-22T21:29:35.907Z,16.12
2023-05-22T21:31:48.033Z,16.14
2023-05-22T21:34:01.558Z,16.07
2023-05-22T21:36:13.646Z,16.07
2023-05-22T21:38:25.751Z,16.06
2023-05-22T21:40:37.974Z,16.03
2023-05-22T21:42:50.862Z,16.00
2023-05-22T21:45:02.950Z,15.99
2023-05-22T21:47:15.006Z,15.96
2023-05-22T21:49:28.154Z,15.96
2023-05-22T21:51:40.166Z,15.93
2023-05-22T21:53:52.282Z,15.92
2023-05-22T21:56:04.324Z,15.88
2023-05-22T21:58:16.390Z,15.92
2023-05-22T22:00:28.656Z,15.93
2023-05-22T22:02:40.760Z,15.94
2023-05-22T22:04:52.666Z,15.93
2023-05-22T22:07:05.742Z,15.92
2023-05-22T22:09:18.177Z,15.86
2023-05-22T22:11:30.286Z,15.84
2023-05-22T22:13:42.323Z,15.79
2023-05-22T22:15:54.417Z,15.75
2023-05-22T22:18:06.572Z,15.76
2023-05-22T22:20:20.421Z,15.76
2023-05-22T22:22:30.648Z,15.75
2023-05-22T22:24:42.706Z,15.75
2023-05-22T22:26:54.800Z,15.75
2023-05-22T22:29:06.883Z,15.72
2023-05-22T22:31:19.007Z,15.70
2023-05-22T22:33:32.080Z,15.66
2023-05-22T22:35:44.152Z,15.68
2023-05-22T22:37:56.209Z,15.67
2023-05-22T22:40:09.854Z,15.66
2023-05-22T22:42:22.920Z,15.67
2023-05-22T22:44:35.028Z,15.63
2023-05-22T22:46:47.060Z,15.61
2023-05-22T22:48:59.136Z,15.60
2023-05-22T22:51:11.302Z,15.59
2023-05-22T22:53:23.388Z,15.59
2023-05-22T22:55:35.528Z,15.51
2023-05-22T22:57:47.532Z,15.48
2023-05-22T23:00:00.650Z,15.45
2023-05-22T23:02:12.670Z,15.48
2023-05-22T23:04:25.534Z,15.49
2023-05-22T23:06:36.878Z,15.49
2023-05-22T23:08:48.917Z,15.48
2023-05-22T23:11:01.001Z,15.42
2023-05-22T23:13:13.132Z,15.36
2023-05-22T23:15:25.154Z,15.33
2023-05-22T23:17:37.258Z,15.28
2023-05-22T23:19:49.326Z,15.27
2023-05-22T23:22:02.316Z,15.26
2023-05-22T23:24:13.489Z,15.20
2023-05-22T23:26:25.582Z,15.19
2023-05-22T23:28:37.692Z,15.17
2023-05-22T23:30:49.728Z,15.13
2023-05-22T23:33:01.846Z,15.11
2023-05-22T23:35:13.907Z,15.06
2023-05-22T23:37:26.987Z,15.08
2023-05-22T23:39:39.076Z,15.05
2023-05-22T23:41:51.127Z,15.01
2023-05-22T23:44:03.707Z,14.99
2023-05-22T23:46:15.320Z,14.95
2023-05-22T23:48:27.371Z,14.99
2023-05-22T23:50:38.475Z,14.94
2023-05-22T23:52:50.508Z,14.93
2023-05-22T23:55:02.641Z,14.91
2023-05-22T23:57:16.215Z,14.88
2023-05-22T23:59:28.298Z,14.87
